sensor_id;sensor_type;location;lat;lon;timestamp;P1;durP1;ratioP1;P2;durP2;ratioP2
73113;SDS011;61301;51.956;5.876;2023-08-07T00:00:08;6.28;;;1.95;;
73113;SDS011;61301;51.956;5.876;2023-08-07T00:02:35;6.53;;;2.25;;
73113;SDS011;61301;51.956;5.876;2023-08-07T00:05:01;5.05;;;1.75;;
73113;SDS011;61301;51.956;5.876;2023-08-07T00:07:27;4.72;;;1.42;;
73113;SDS011;61301;51.956;5.876;2023-08-07T00:09:53;8.25;;;1.73;;
73113;SDS011;61301;51.956;5.876;2023-08-07T00:12:19;5.57;;;1.60;;
73113;SDS011;61301;51.956;5.876;2023-08-07T00:14:47;4.13;;;1.05;;
73113;SDS011;61301;51.956;5.876;2023-08-07T00:17:13;2.17;;;0.82;;
73113;SDS011;61301;51.956;5.876;2023-08-07T00:19:39;2.38;;;0.80;;
73113;SDS011;61301;51.956;5.876;2023-08-07T00:22:05;4.70;;;1.30;;
73113;SDS011;61301;51.956;5.876;2023-08-07T00:24:31;2.20;;;1.00;;
73113;SDS011;61301;51.956;5.876;2023-08-07T00:26:57;3.10;;;0.85;;
73113;SDS011;61301;51.956;5.876;2023-08-07T00:29:23;4.20;;;0.85;;
73113;SDS011;61301;51.956;5.876;2023-08-07T00:31:49;3.65;;;0.80;;
73113;SDS011;61301;51.956;5.876;2023-08-07T00:34:15;2.33;;;0.85;;
73113;SDS011;61301;51.956;5.876;2023-08-07T00:36:43;1.88;;;1.05;;
73113;SDS011;61301;51.956;5.876;2023-08-07T00:39:09;2.90;;;1.20;;
73113;SDS011;61301;51.956;5.876;2023-08-07T00:41:38;4.15;;;1.27;;
73113;SDS011;61301;51.956;5.876;2023-08-07T00:44:05;4.57;;;1.15;;
73113;SDS011;61301;51.956;5.876;2023-08-07T00:46:31;4.05;;;1.33;;
73113;SDS011;61301;51.956;5.876;2023-08-07T00:48:58;5.90;;;1.33;;
73113;SDS011;61301;51.956;5.876;2023-08-07T00:51:24;2.03;;;0.80;;
73113;SDS011;61301;51.956;5.876;2023-08-07T00:53:50;4.75;;;1.13;;
73113;SDS011;61301;51.956;5.876;2023-08-07T00:56:16;2.65;;;1.00;;
73113;SDS011;61301;51.956;5.876;2023-08-07T00:58:43;8.32;;;1.92;;
73113;SDS011;61301;51.956;5.876;2023-08-07T01:01:09;4.65;;;1.17;;
73113;SDS011;61301;51.956;5.876;2023-08-07T01:03:35;4.38;;;1.40;;
73113;SDS011;61301;51.956;5.876;2023-08-07T01:06:01;7.65;;;1.27;;
73113;SDS011;61301;51.956;5.876;2023-08-07T01:08:27;8.10;;;1.63;;
73113;SDS011;61301;51.956;5.876;2023-08-07T01:13:40;4.20;;;1.92;;
73113;SDS011;61301;51.956;5.876;2023-08-07T01:16:13;6.30;;;1.88;;
73113;SDS011;61301;51.956;5.876;2023-08-07T01:18:44;5.53;;;1.50;;
73113;SDS011;61301;51.956;5.876;2023-08-07T01:21:18;6.32;;;1.83;;
73113;SDS011;61301;51.956;5.876;2023-08-07T01:23:46;6.70;;;1.48;;
73113;SDS011;61301;51.956;5.876;2023-08-07T01:26:13;3.92;;;1.25;;
73113;SDS011;61301;51.956;5.876;2023-08-07T01:28:42;7.20;;;1.80;;
73113;SDS011;61301;51.956;5.876;2023-08-07T01:31:28;6.88;;;2.42;;
73113;SDS011;61301;51.956;5.876;2023-08-07T01:36:22;10.65;;;1.92;;
73113;SDS011;61301;51.956;5.876;2023-08-07T01:38:50;9.60;;;2.03;;
73113;SDS011;61301;51.956;5.876;2023-08-07T01:41:18;10.05;;;1.90;;
73113;SDS011;61301;51.956;5.876;2023-08-07T01:43:45;8.10;;;1.98;;
73113;SDS011;61301;51.956;5.876;2023-08-07T01:46:11;8.38;;;2.03;;
73113;SDS011;61301;51.956;5.876;2023-08-07T01:48:37;9.32;;;2.72;;
73113;SDS011;61301;51.956;5.876;2023-08-07T01:51:03;8.65;;;2.08;;
73113;SDS011;61301;51.956;5.876;2023-08-07T01:53:29;9.73;;;2.17;;
73113;SDS011;61301;51.956;5.876;2023-08-07T01:55:55;10.43;;;2.85;;
73113;SDS011;61301;51.956;5.876;2023-08-07T01:58:21;6.38;;;2.30;;
73113;SDS011;61301;51.956;5.876;2023-08-07T02:00:47;15.43;;;3.03;;
73113;SDS011;61301;51.956;5.876;2023-08-07T02:03:14;5.97;;;2.13;;
73113;SDS011;61301;51.956;5.876;2023-08-07T02:05:40;5.47;;;1.83;;
73113;SDS011;61301;51.956;5.876;2023-08-07T02:08:06;7.20;;;2.35;;
73113;SDS011;61301;51.956;5.876;2023-08-07T02:10:32;7.53;;;2.17;;
73113;SDS011;61301;51.956;5.876;2023-08-07T02:12:58;14.82;;;3.45;;
73113;SDS011;61301;51.956;5.876;2023-08-07T02:15:25;17.42;;;2.78;;
73113;SDS011;61301;51.956;5.876;2023-08-07T02:17:51;9.27;;;2.75;;
73113;SDS011;61301;51.956;5.876;2023-08-07T02:20:17;7.00;;;2.42;;
73113;SDS011;61301;51.956;5.876;2023-08-07T02:22:44;8.80;;;2.53;;
73113;SDS011;61301;51.956;5.876;2023-08-07T02:25:10;12.05;;;2.53;;
73113;SDS011;61301;51.956;5.876;2023-08-07T02:27:37;12.13;;;2.60;;
73113;SDS011;61301;51.956;5.876;2023-08-07T02:30:05;8.18;;;2.53;;
73113;SDS011;61301;51.956;5.876;2023-08-07T02:32:31;7.80;;;2.25;;
73113;SDS011;61301;51.956;5.876;2023-08-07T02:34:57;12.93;;;2.50;;
73113;SDS011;61301;51.956;5.876;2023-08-07T02:37:24;7.90;;;2.10;;
73113;SDS011;61301;51.956;5.876;2023-08-07T02:39:50;4.93;;;2.22;;
73113;SDS011;61301;51.956;5.876;2023-08-07T02:42:16;12.38;;;3.35;;
73113;SDS011;61301;51.956;5.876;2023-08-07T02:44:42;7.78;;;2.00;;
73113;SDS011;61301;51.956;5.876;2023-08-07T02:47:08;5.63;;;1.85;;
73113;SDS011;61301;51.956;5.876;2023-08-07T02:49:34;5.80;;;2.00;;
73113;SDS011;61301;51.956;5.876;2023-08-07T02:52:01;11.20;;;2.50;;
73113;SDS011;61301;51.956;5.876;2023-08-07T02:54:27;7.97;;;2.78;;
73113;SDS011;61301;51.956;5.876;2023-08-07T02:56:52;17.67;;;3.88;;
73113;SDS011;61301;51.956;5.876;2023-08-07T02:59:18;10.50;;;2.60;;
73113;SDS011;61301;51.956;5.876;2023-08-07T03:01:45;8.57;;;1.90;;
73113;SDS011;61301;51.956;5.876;2023-08-07T03:04:11;8.13;;;2.25;;
73113;SDS011;61301;51.956;5.876;2023-08-07T03:06:37;6.10;;;2.20;;
73113;SDS011;61301;51.956;5.876;2023-08-07T03:09:03;10.93;;;2.38;;
73113;SDS011;61301;51.956;5.876;2023-08-07T03:11:29;5.10;;;1.90;;
73113;SDS011;61301;51.956;5.876;2023-08-07T03:13:55;7.75;;;2.22;;
73113;SDS011;61301;51.956;5.876;2023-08-07T03:16:21;8.60;;;3.03;;
73113;SDS011;61301;51.956;5.876;2023-08-07T03:18:47;8.68;;;2.30;;
73113;SDS011;61301;51.956;5.876;2023-08-07T03:21:13;11.68;;;2.85;;
73113;SDS011;61301;51.956;5.876;2023-08-07T03:23:40;9.43;;;2.25;;
73113;SDS011;61301;51.956;5.876;2023-08-07T03:26:08;10.77;;;2.97;;
73113;SDS011;61301;51.956;5.876;2023-08-07T03:28:37;12.80;;;3.33;;
73113;SDS011;61301;51.956;5.876;2023-08-07T03:31:05;3.97;;;1.50;;
73113;SDS011;61301;51.956;5.876;2023-08-07T03:33:33;7.53;;;2.15;;
73113;SDS011;61301;51.956;5.876;2023-08-07T03:35:59;7.25;;;1.75;;
73113;SDS011;61301;51.956;5.876;2023-08-07T03:38:26;8.55;;;2.08;;
73113;SDS011;61301;51.956;5.876;2023-08-07T03:40:54;6.57;;;2.45;;
73113;SDS011;61301;51.956;5.876;2023-08-07T03:43:20;7.93;;;2.03;;
73113;SDS011;61301;51.956;5.876;2023-08-07T03:45:47;7.30;;;2.13;;
73113;SDS011;61301;51.956;5.876;2023-08-07T03:48:13;7.18;;;1.80;;
73113;SDS011;61301;51.956;5.876;2023-08-07T03:50:40;5.90;;;2.42;;
73113;SDS011;61301;51.956;5.876;2023-08-07T03:53:07;6.72;;;1.92;;
73113;SDS011;61301;51.956;5.876;2023-08-07T03:55:37;6.30;;;2.00;;
73113;SDS011;61301;51.956;5.876;2023-08-07T03:58:03;8.80;;;2.30;;
73113;SDS011;61301;51.956;5.876;2023-08-07T04:00:29;9.90;;;2.20;;
73113;SDS011;61301;51.956;5.876;2023-08-07T04:02:55;8.65;;;2.30;;
73113;SDS011;61301;51.956;5.876;2023-08-07T04:05:21;6.57;;;1.90;;
73113;SDS011;61301;51.956;5.876;2023-08-07T04:07:47;4.82;;;1.73;;
73113;SDS011;61301;51.956;5.876;2023-08-07T04:10:13;6.00;;;2.20;;
73113;SDS011;61301;51.956;5.876;2023-08-07T04:12:39;5.40;;;1.60;;
73113;SDS011;61301;51.956;5.876;2023-08-07T04:15:06;6.95;;;2.10;;
73113;SDS011;61301;51.956;5.876;2023-08-07T04:17:32;6.43;;;1.88;;
73113;SDS011;61301;51.956;5.876;2023-08-07T04:19:58;6.07;;;1.58;;
73113;SDS011;61301;51.956;5.876;2023-08-07T04:22:24;5.47;;;1.65;;
73113;SDS011;61301;51.956;5.876;2023-08-07T04:24:50;6.28;;;1.95;;
73113;SDS011;61301;51.956;5.876;2023-08-07T04:27:16;4.10;;;1.70;;
73113;SDS011;61301;51.956;5.876;2023-08-07T04:29:43;6.60;;;1.90;;
73113;SDS011;61301;51.956;5.876;2023-08-07T04:32:09;7.93;;;1.67;;
73113;SDS011;61301;51.956;5.876;2023-08-07T04:34:35;6.85;;;1.70;;
73113;SDS011;61301;51.956;5.876;2023-08-07T04:37:01;4.93;;;1.83;;
73113;SDS011;61301;51.956;5.876;2023-08-07T04:39:27;5.07;;;1.63;;
73113;SDS011;61301;51.956;5.876;2023-08-07T04:41:53;7.10;;;2.15;;
73113;SDS011;61301;51.956;5.876;2023-08-07T04:44:19;5.75;;;1.70;;
73113;SDS011;61301;51.956;5.876;2023-08-07T04:46:45;8.82;;;2.28;;
73113;SDS011;61301;51.956;5.876;2023-08-07T04:49:11;7.65;;;2.08;;
73113;SDS011;61301;51.956;5.876;2023-08-07T04:51:37;10.45;;;2.28;;
73113;SDS011;61301;51.956;5.876;2023-08-07T04:54:02;6.00;;;1.98;;
73113;SDS011;61301;51.956;5.876;2023-08-07T04:56:28;8.07;;;2.10;;
73113;SDS011;61301;51.956;5.876;2023-08-07T04:58:56;5.07;;;1.80;;
73113;SDS011;61301;51.956;5.876;2023-08-07T05:01:22;8.35;;;2.40;;
73113;SDS011;61301;51.956;5.876;2023-08-07T05:03:48;7.60;;;2.00;;
73113;SDS011;61301;51.956;5.876;2023-08-07T05:06:14;9.77;;;2.30;;
73113;SDS011;61301;51.956;5.876;2023-08-07T05:08:40;7.93;;;2.30;;
73113;SDS011;61301;51.956;5.876;2023-08-07T05:11:06;11.10;;;3.00;;
73113;SDS011;61301;51.956;5.876;2023-08-07T05:13:32;5.18;;;2.08;;
73113;SDS011;61301;51.956;5.876;2023-08-07T05:15:58;8.02;;;2.55;;
73113;SDS011;61301;51.956;5.876;2023-08-07T05:18:24;11.32;;;2.70;;
73113;SDS011;61301;51.956;5.876;2023-08-07T05:20:50;8.10;;;2.65;;
73113;SDS011;61301;51.956;5.876;2023-08-07T05:23:16;13.90;;;3.72;;
73113;SDS011;61301;51.956;5.876;2023-08-07T05:25:44;7.38;;;2.60;;
73113;SDS011;61301;51.956;5.876;2023-08-07T05:28:11;11.50;;;2.97;;
73113;SDS011;61301;51.956;5.876;2023-08-07T05:30:37;6.93;;;2.53;;
73113;SDS011;61301;51.956;5.876;2023-08-07T05:33:04;9.13;;;2.70;;
73113;SDS011;61301;51.956;5.876;2023-08-07T05:35:30;11.45;;;2.58;;
73113;SDS011;61301;51.956;5.876;2023-08-07T05:37:56;7.85;;;3.22;;
73113;SDS011;61301;51.956;5.876;2023-08-07T05:40:22;10.18;;;2.88;;
73113;SDS011;61301;51.956;5.876;2023-08-07T05:42:48;8.63;;;2.28;;
73113;SDS011;61301;51.956;5.876;2023-08-07T05:45:14;10.82;;;2.83;;
73113;SDS011;61301;51.956;5.876;2023-08-07T05:47:40;10.27;;;2.78;;
73113;SDS011;61301;51.956;5.876;2023-08-07T05:50:06;7.05;;;2.22;;
73113;SDS011;61301;51.956;5.876;2023-08-07T05:52:32;11.23;;;3.22;;
73113;SDS011;61301;51.956;5.876;2023-08-07T05:54:58;9.05;;;3.13;;
73113;SDS011;61301;51.956;5.876;2023-08-07T05:57:24;8.50;;;2.45;;
73113;SDS011;61301;51.956;5.876;2023-08-07T05:59:50;4.85;;;2.10;;
73113;SDS011;61301;51.956;5.876;2023-08-07T06:02:16;6.20;;;1.98;;
73113;SDS011;61301;51.956;5.876;2023-08-07T06:04:42;7.25;;;2.20;;
73113;SDS011;61301;51.956;5.876;2023-08-07T06:07:08;7.82;;;2.47;;
73113;SDS011;61301;51.956;5.876;2023-08-07T06:09:34;6.78;;;2.05;;
73113;SDS011;61301;51.956;5.876;2023-08-07T06:12:01;8.15;;;2.58;;
73113;SDS011;61301;51.956;5.876;2023-08-07T06:14:27;7.05;;;2.38;;
73113;SDS011;61301;51.956;5.876;2023-08-07T06:16:54;8.48;;;2.40;;
73113;SDS011;61301;51.956;5.876;2023-08-07T06:19:20;8.85;;;2.58;;
73113;SDS011;61301;51.956;5.876;2023-08-07T06:21:48;5.03;;;1.98;;
73113;SDS011;61301;51.956;5.876;2023-08-07T06:24:13;13.10;;;2.70;;
73113;SDS011;61301;51.956;5.876;2023-08-07T06:26:39;11.35;;;3.22;;
73113;SDS011;61301;51.956;5.876;2023-08-07T06:29:05;9.60;;;3.45;;
73113;SDS011;61301;51.956;5.876;2023-08-07T06:31:31;10.07;;;4.30;;
73113;SDS011;61301;51.956;5.876;2023-08-07T06:33:57;9.60;;;3.47;;
73113;SDS011;61301;51.956;5.876;2023-08-07T06:36:25;14.90;;;2.78;;
73113;SDS011;61301;51.956;5.876;2023-08-07T06:38:52;8.10;;;2.50;;
73113;SDS011;61301;51.956;5.876;2023-08-07T06:41:18;9.98;;;3.20;;
73113;SDS011;61301;51.956;5.876;2023-08-07T06:43:44;8.00;;;2.50;;
73113;SDS011;61301;51.956;5.876;2023-08-07T06:46:10;12.05;;;2.60;;
73113;SDS011;61301;51.956;5.876;2023-08-07T06:48:37;6.63;;;2.30;;
73113;SDS011;61301;51.956;5.876;2023-08-07T06:51:03;8.73;;;2.90;;
73113;SDS011;61301;51.956;5.876;2023-08-07T06:53:29;9.10;;;2.40;;
73113;SDS011;61301;51.956;5.876;2023-08-07T06:55:55;7.43;;;2.53;;
73113;SDS011;61301;51.956;5.876;2023-08-07T06:58:20;8.35;;;2.20;;
73113;SDS011;61301;51.956;5.876;2023-08-07T07:00:46;11.15;;;2.50;;
73113;SDS011;61301;51.956;5.876;2023-08-07T07:03:13;11.00;;;2.95;;
73113;SDS011;61301;51.956;5.876;2023-08-07T07:05:39;8.63;;;2.60;;
73113;SDS011;61301;51.956;5.876;2023-08-07T07:08:08;9.55;;;2.28;;
73113;SDS011;61301;51.956;5.876;2023-08-07T07:10:34;11.45;;;2.47;;
73113;SDS011;61301;51.956;5.876;2023-08-07T07:13:00;8.40;;;2.30;;
73113;SDS011;61301;51.956;5.876;2023-08-07T07:15:26;8.27;;;2.70;;
73113;SDS011;61301;51.956;5.876;2023-08-07T07:17:52;12.05;;;2.97;;
73113;SDS011;61301;51.956;5.876;2023-08-07T07:20:18;11.90;;;2.70;;
73113;SDS011;61301;51.956;5.876;2023-08-07T07:22:44;6.72;;;2.67;;
73113;SDS011;61301;51.956;5.876;2023-08-07T07:25:10;6.30;;;2.40;;
73113;SDS011;61301;51.956;5.876;2023-08-07T07:27:36;6.93;;;2.10;;
73113;SDS011;61301;51.956;5.876;2023-08-07T07:30:02;10.07;;;3.53;;
73113;SDS011;61301;51.956;5.876;2023-08-07T07:32:29;7.55;;;2.50;;
73113;SDS011;61301;51.956;5.876;2023-08-07T07:34:55;8.55;;;2.53;;
73113;SDS011;61301;51.956;5.876;2023-08-07T07:37:21;6.65;;;2.45;;
73113;SDS011;61301;51.956;5.876;2023-08-07T07:39:47;10.85;;;2.65;;
73113;SDS011;61301;51.956;5.876;2023-08-07T07:42:13;9.30;;;2.40;;
73113;SDS011;61301;51.956;5.876;2023-08-07T07:44:39;6.13;;;2.50;;
73113;SDS011;61301;51.956;5.876;2023-08-07T07:47:05;9.27;;;2.10;;
73113;SDS011;61301;51.956;5.876;2023-08-07T07:49:32;9.43;;;3.05;;
73113;SDS011;61301;51.956;5.876;2023-08-07T07:51:59;7.60;;;2.17;;
73113;SDS011;61301;51.956;5.876;2023-08-07T07:54:25;9.25;;;3.00;;
73113;SDS011;61301;51.956;5.876;2023-08-07T07:56:51;9.40;;;2.72;;
73113;SDS011;61301;51.956;5.876;2023-08-07T07:59:17;9.82;;;2.65;;
73113;SDS011;61301;51.956;5.876;2023-08-07T08:01:43;11.10;;;3.10;;
73113;SDS011;61301;51.956;5.876;2023-08-07T08:04:09;8.30;;;2.63;;
73113;SDS011;61301;51.956;5.876;2023-08-07T08:06:39;7.45;;;2.08;;
73113;SDS011;61301;51.956;5.876;2023-08-07T08:09:06;8.05;;;2.38;;
73113;SDS011;61301;51.956;5.876;2023-08-07T08:11:34;8.02;;;2.72;;
73113;SDS011;61301;51.956;5.876;2023-08-07T08:14:00;8.23;;;2.97;;
73113;SDS011;61301;51.956;5.876;2023-08-07T08:16:26;12.05;;;3.22;;
73113;SDS011;61301;51.956;5.876;2023-08-07T08:18:52;8.70;;;2.83;;
73113;SDS011;61301;51.956;5.876;2023-08-07T08:21:18;9.77;;;3.53;;
73113;SDS011;61301;51.956;5.876;2023-08-07T08:23:44;7.10;;;2.50;;
73113;SDS011;61301;51.956;5.876;2023-08-07T08:26:10;8.18;;;2.60;;
73113;SDS011;61301;51.956;5.876;2023-08-07T08:28:37;10.90;;;2.83;;
73113;SDS011;61301;51.956;5.876;2023-08-07T08:31:03;11.02;;;2.85;;
73113;SDS011;61301;51.956;5.876;2023-08-07T08:33:30;7.82;;;3.13;;
73113;SDS011;61301;51.956;5.876;2023-08-07T08:35:56;10.85;;;2.83;;
73113;SDS011;61301;51.956;5.876;2023-08-07T08:38:22;6.82;;;2.67;;
73113;SDS011;61301;51.956;5.876;2023-08-07T08:40:49;7.13;;;2.72;;
73113;SDS011;61301;51.956;5.876;2023-08-07T08:43:17;12.07;;;2.65;;
73113;SDS011;61301;51.956;5.876;2023-08-07T08:45:44;7.68;;;2.70;;
73113;SDS011;61301;51.956;5.876;2023-08-07T08:48:11;8.00;;;2.58;;
73113;SDS011;61301;51.956;5.876;2023-08-07T08:50:48;10.30;;;2.78;;
73113;SDS011;61301;51.956;5.876;2023-08-07T08:53:16;8.35;;;3.35;;
73113;SDS011;61301;51.956;5.876;2023-08-07T08:55:42;14.52;;;3.10;;
73113;SDS011;61301;51.956;5.876;2023-08-07T08:58:13;9.68;;;3.10;;
73113;SDS011;61301;51.956;5.876;2023-08-07T09:00:41;10.48;;;3.22;;
73113;SDS011;61301;51.956;5.876;2023-08-07T09:03:07;16.50;;;3.40;;
73113;SDS011;61301;51.956;5.876;2023-08-07T09:05:33;10.70;;;3.13;;
73113;SDS011;61301;51.956;5.876;2023-08-07T09:08:01;11.73;;;2.50;;
73113;SDS011;61301;51.956;5.876;2023-08-07T09:10:27;11.30;;;2.95;;
73113;SDS011;61301;51.956;5.876;2023-08-07T09:13:02;10.43;;;3.25;;
73113;SDS011;61301;51.956;5.876;2023-08-07T09:15:33;12.70;;;3.28;;
73113;SDS011;61301;51.956;5.876;2023-08-07T09:18:01;11.68;;;2.55;;
73113;SDS011;61301;51.956;5.876;2023-08-07T09:20:29;10.68;;;2.83;;
73113;SDS011;61301;51.956;5.876;2023-08-07T09:22:56;12.82;;;3.08;;
73113;SDS011;61301;51.956;5.876;2023-08-07T09:25:28;8.18;;;2.78;;
73113;SDS011;61301;51.956;5.876;2023-08-07T09:27:56;9.15;;;3.45;;
73113;SDS011;61301;51.956;5.876;2023-08-07T09:30:28;8.32;;;2.25;;
73113;SDS011;61301;51.956;5.876;2023-08-07T09:32:56;6.38;;;2.42;;
73113;SDS011;61301;51.956;5.876;2023-08-07T09:35:23;6.00;;;1.70;;
73113;SDS011;61301;51.956;5.876;2023-08-07T09:37:50;8.68;;;2.03;;
73113;SDS011;61301;51.956;5.876;2023-08-07T09:40:17;9.40;;;2.30;;
73113;SDS011;61301;51.956;5.876;2023-08-07T09:42:43;8.23;;;2.38;;
73113;SDS011;61301;51.956;5.876;2023-08-07T09:45:22;12.30;;;2.92;;
73113;SDS011;61301;51.956;5.876;2023-08-07T09:47:56;6.22;;;2.13;;
73113;SDS011;61301;51.956;5.876;2023-08-07T09:50:29;5.85;;;2.25;;
73113;SDS011;61301;51.956;5.876;2023-08-07T09:52:56;9.68;;;2.83;;
73113;SDS011;61301;51.956;5.876;2023-08-07T09:55:23;5.15;;;2.00;;
73113;SDS011;61301;51.956;5.876;2023-08-07T09:57:50;14.82;;;3.08;;
73113;SDS011;61301;51.956;5.876;2023-08-07T10:00:17;9.80;;;2.10;;
73113;SDS011;61301;51.956;5.876;2023-08-07T10:02:47;9.38;;;3.22;;
73113;SDS011;61301;51.956;5.876;2023-08-07T10:05:14;8.93;;;2.70;;
73113;SDS011;61301;51.956;5.876;2023-08-07T10:07:40;6.78;;;2.28;;
73113;SDS011;61301;51.956;5.876;2023-08-07T10:10:07;7.30;;;2.50;;
73113;SDS011;61301;51.956;5.876;2023-08-07T10:12:34;7.05;;;2.28;;
73113;SDS011;61301;51.956;5.876;2023-08-07T10:15:02;5.20;;;1.73;;
73113;SDS011;61301;51.956;5.876;2023-08-07T10:17:29;5.68;;;1.98;;
73113;SDS011;61301;51.956;5.876;2023-08-07T10:19:57;7.05;;;2.00;;
73113;SDS011;61301;51.956;5.876;2023-08-07T10:22:24;5.25;;;1.80;;
73113;SDS011;61301;51.956;5.876;2023-08-07T10:24:52;7.22;;;2.25;;
73113;SDS011;61301;51.956;5.876;2023-08-07T10:27:20;7.75;;;2.92;;
73113;SDS011;61301;51.956;5.876;2023-08-07T10:29:48;6.15;;;2.05;;
73113;SDS011;61301;51.956;5.876;2023-08-07T10:32:17;7.82;;;2.40;;
73113;SDS011;61301;51.956;5.876;2023-08-07T10:34:46;6.00;;;2.03;;
73113;SDS011;61301;51.956;5.876;2023-08-07T10:40:03;6.90;;;2.20;;
73113;SDS011;61301;51.956;5.876;2023-08-07T10:42:49;6.75;;;2.17;;
73113;SDS011;61301;51.956;5.876;2023-08-07T10:45:25;6.82;;;2.55;;
73113;SDS011;61301;51.956;5.876;2023-08-07T10:50:50;5.70;;;1.90;;
73113;SDS011;61301;51.956;5.876;2023-08-07T10:53:36;5.45;;;2.28;;
73113;SDS011;61301;51.956;5.876;2023-08-07T10:56:51;5.90;;;2.20;;
73113;SDS011;61301;51.956;5.876;2023-08-07T10:58:57;11.05;;;2.05;;
73113;SDS011;61301;51.956;5.876;2023-08-07T11:04:08;6.88;;;1.90;;
73113;SDS011;61301;51.956;5.876;2023-08-07T11:06:36;5.45;;;1.65;;
73113;SDS011;61301;51.956;5.876;2023-08-07T11:09:04;5.63;;;1.50;;
73113;SDS011;61301;51.956;5.876;2023-08-07T11:11:35;6.63;;;1.70;;
73113;SDS011;61301;51.956;5.876;2023-08-07T11:16:41;7.70;;;2.03;;
73113;SDS011;61301;51.956;5.876;2023-08-07T11:19:08;6.15;;;2.33;;
73113;SDS011;61301;51.956;5.876;2023-08-07T11:21:35;7.15;;;1.80;;
73113;SDS011;61301;51.956;5.876;2023-08-07T11:24:03;6.43;;;1.83;;
73113;SDS011;61301;51.956;5.876;2023-08-07T11:26:29;6.82;;;2.05;;
73113;SDS011;61301;51.956;5.876;2023-08-07T11:28:55;6.93;;;2.15;;
73113;SDS011;61301;51.956;5.876;2023-08-07T11:31:22;7.78;;;2.97;;
73113;SDS011;61301;51.956;5.876;2023-08-07T11:33:54;6.93;;;2.20;;
73113;SDS011;61301;51.956;5.876;2023-08-07T11:36:21;5.80;;;2.28;;
73113;SDS011;61301;51.956;5.876;2023-08-07T11:38:48;6.95;;;2.47;;
73113;SDS011;61301;51.956;5.876;2023-08-07T11:41:15;7.20;;;2.10;;
73113;SDS011;61301;51.956;5.876;2023-08-07T11:43:42;5.45;;;2.33;;
73113;SDS011;61301;51.956;5.876;2023-08-07T11:46:10;10.52;;;2.17;;
73113;SDS011;61301;51.956;5.876;2023-08-07T11:48:38;6.60;;;2.20;;
73113;SDS011;61301;51.956;5.876;2023-08-07T11:51:05;5.53;;;2.05;;
73113;SDS011;61301;51.956;5.876;2023-08-07T11:53:33;10.13;;;1.98;;
73113;SDS011;61301;51.956;5.876;2023-08-07T11:56:01;6.40;;;1.92;;
73113;SDS011;61301;51.956;5.876;2023-08-07T11:58:35;6.43;;;1.95;;
73113;SDS011;61301;51.956;5.876;2023-08-07T12:01:03;5.47;;;1.85;;
73113;SDS011;61301;51.956;5.876;2023-08-07T12:03:36;8.55;;;2.22;;
73113;SDS011;61301;51.956;5.876;2023-08-07T12:06:06;7.35;;;1.73;;
73113;SDS011;61301;51.956;5.876;2023-08-07T12:08:37;3.88;;;1.52;;
73113;SDS011;61301;51.956;5.876;2023-08-07T12:11:05;7.68;;;2.58;;
73113;SDS011;61301;51.956;5.876;2023-08-07T12:13:33;4.32;;;1.75;;
73113;SDS011;61301;51.956;5.876;2023-08-07T12:16:00;3.22;;;1.55;;
73113;SDS011;61301;51.956;5.876;2023-08-07T12:18:29;7.03;;;1.90;;
73113;SDS011;61301;51.956;5.876;2023-08-07T12:20:56;6.55;;;1.88;;
73113;SDS011;61301;51.956;5.876;2023-08-07T12:23:26;6.03;;;1.52;;
73113;SDS011;61301;51.956;5.876;2023-08-07T12:25:52;6.38;;;1.75;;
73113;SDS011;61301;51.956;5.876;2023-08-07T12:28:19;9.00;;;2.10;;
73113;SDS011;61301;51.956;5.876;2023-08-07T12:30:45;4.80;;;1.85;;
73113;SDS011;61301;51.956;5.876;2023-08-07T12:33:13;6.65;;;1.90;;
73113;SDS011;61301;51.956;5.876;2023-08-07T12:35:40;4.70;;;1.48;;
73113;SDS011;61301;51.956;5.876;2023-08-07T12:38:07;10.10;;;2.28;;
73113;SDS011;61301;51.956;5.876;2023-08-07T12:40:34;5.28;;;2.15;;
73113;SDS011;61301;51.956;5.876;2023-08-07T12:43:04;4.90;;;2.03;;
73113;SDS011;61301;51.956;5.876;2023-08-07T12:45:30;4.93;;;1.67;;
73113;SDS011;61301;51.956;5.876;2023-08-07T12:47:56;5.55;;;2.03;;
73113;SDS011;61301;51.956;5.876;2023-08-07T12:50:22;5.70;;;1.80;;
73113;SDS011;61301;51.956;5.876;2023-08-07T12:52:48;7.15;;;1.85;;
73113;SDS011;61301;51.956;5.876;2023-08-07T12:55:14;4.55;;;2.13;;
73113;SDS011;61301;51.956;5.876;2023-08-07T12:57:43;6.32;;;1.85;;
73113;SDS011;61301;51.956;5.876;2023-08-07T13:00:10;4.60;;;1.80;;
73113;SDS011;61301;51.956;5.876;2023-08-07T13:02:43;2.85;;;1.80;;
73113;SDS011;61301;51.956;5.876;2023-08-07T13:05:11;7.35;;;1.92;;
73113;SDS011;61301;51.956;5.876;2023-08-07T13:07:38;4.47;;;1.48;;
73113;SDS011;61301;51.956;5.876;2023-08-07T13:10:05;5.28;;;2.00;;
73113;SDS011;61301;51.956;5.876;2023-08-07T13:12:35;5.28;;;1.77;;
73113;SDS011;61301;51.956;5.876;2023-08-07T13:15:05;6.37;;;2.17;;
73113;SDS011;61301;51.956;5.876;2023-08-07T13:17:37;6.53;;;1.57;;
73113;SDS011;61301;51.956;5.876;2023-08-07T13:20:04;6.53;;;1.85;;
73113;SDS011;61301;51.956;5.876;2023-08-07T13:22:35;7.00;;;1.88;;
73113;SDS011;61301;51.956;5.876;2023-08-07T13:25:04;5.50;;;1.83;;
73113;SDS011;61301;51.956;5.876;2023-08-07T13:27:32;4.93;;;1.85;;
73113;SDS011;61301;51.956;5.876;2023-08-07T13:29:59;3.17;;;1.33;;
73113;SDS011;61301;51.956;5.876;2023-08-07T13:32:26;4.80;;;1.35;;
73113;SDS011;61301;51.956;5.876;2023-08-07T13:34:52;6.78;;;1.60;;
73113;SDS011;61301;51.956;5.876;2023-08-07T13:37:19;5.68;;;1.55;;
73113;SDS011;61301;51.956;5.876;2023-08-07T13:39:45;5.00;;;1.92;;
73113;SDS011;61301;51.956;5.876;2023-08-07T13:42:11;5.20;;;1.70;;
73113;SDS011;61301;51.956;5.876;2023-08-07T13:44:37;5.70;;;1.70;;
73113;SDS011;61301;51.956;5.876;2023-08-07T13:47:04;5.03;;;1.75;;
73113;SDS011;61301;51.956;5.876;2023-08-07T13:49:30;6.47;;;1.58;;
73113;SDS011;61301;51.956;5.876;2023-08-07T13:51:56;4.15;;;1.45;;
73113;SDS011;61301;51.956;5.876;2023-08-07T13:54:22;5.72;;;1.50;;
73113;SDS011;61301;51.956;5.876;2023-08-07T13:56:48;5.25;;;1.77;;
73113;SDS011;61301;51.956;5.876;2023-08-07T13:59:15;3.83;;;1.50;;
73113;SDS011;61301;51.956;5.876;2023-08-07T14:01:42;5.63;;;1.52;;
73113;SDS011;61301;51.956;5.876;2023-08-07T14:04:08;3.38;;;1.50;;
73113;SDS011;61301;51.956;5.876;2023-08-07T14:06:34;4.10;;;1.70;;
73113;SDS011;61301;51.956;5.876;2023-08-07T14:09:00;3.35;;;1.20;;
73113;SDS011;61301;51.956;5.876;2023-08-07T14:11:26;7.65;;;1.52;;
73113;SDS011;61301;51.956;5.876;2023-08-07T14:13:57;2.92;;;1.15;;
73113;SDS011;61301;51.956;5.876;2023-08-07T14:16:23;3.55;;;1.40;;
73113;SDS011;61301;51.956;5.876;2023-08-07T14:18:50;3.33;;;1.23;;
73113;SDS011;61301;51.956;5.876;2023-08-07T14:21:16;5.45;;;1.35;;
73113;SDS011;61301;51.956;5.876;2023-08-07T14:23:43;4.35;;;1.40;;
73113;SDS011;61301;51.956;5.876;2023-08-07T14:26:11;5.95;;;1.52;;
73113;SDS011;61301;51.956;5.876;2023-08-07T14:28:37;1.75;;;1.00;;
73113;SDS011;61301;51.956;5.876;2023-08-07T14:31:07;2.38;;;0.90;;
73113;SDS011;61301;51.956;5.876;2023-08-07T14:33:34;2.33;;;1.05;;
73113;SDS011;61301;51.956;5.876;2023-08-07T14:36:00;4.05;;;1.20;;
73113;SDS011;61301;51.956;5.876;2023-08-07T14:38:27;4.20;;;1.30;;
73113;SDS011;61301;51.956;5.876;2023-08-07T14:40:54;3.67;;;1.50;;
73113;SDS011;61301;51.956;5.876;2023-08-07T14:43:21;1.63;;;0.90;;
73113;SDS011;61301;51.956;5.876;2023-08-07T14:45:47;3.28;;;1.30;;
73113;SDS011;61301;51.956;5.876;2023-08-07T14:48:13;2.78;;;1.17;;
73113;SDS011;61301;51.956;5.876;2023-08-07T14:50:40;3.20;;;1.13;;
73113;SDS011;61301;51.956;5.876;2023-08-07T14:53:06;4.28;;;1.30;;
73113;SDS011;61301;51.956;5.876;2023-08-07T14:55:32;1.83;;;0.93;;
73113;SDS011;61301;51.956;5.876;2023-08-07T14:57:58;2.03;;;1.10;;
73113;SDS011;61301;51.956;5.876;2023-08-07T15:00:24;4.53;;;1.10;;